Time;durP1;ratioP1;P1;durP2;ratioP2;P2;SDS_P1;SDS_P2;PMS_P1;PMS_P2;Temp;Humidity;BMP_temperature;BMP_pressure;BME280_temperature;BME280_humidity;BME280_pressure;Samples;Min_cycle;Max_cycle;Signal;HPM_P1;HPM_P2
2023/04/16 00:00:49;;;;;;;58.57;27.80;;;4.40;99.90;;;;;;4450459;28;658200;-69
2023/04/16 00:03:37;;;;;;;59.27;28.70;;;4.40;99.90;;;;;;4432233;28;659362;-68
2023/04/16 00:06:24;;;;;;;61.40;28.80;;;4.50;99.90;;;;;;4449611;28;658901;-68
2023/04/16 00:09:12;;;;;;;60.13;27.83;;;4.50;99.90;;;;;;4432004;28;658743;-68
2023/04/16 00:12:00;;;;;;;65.53;30.77;;;4.50;99.90;;;;;;4448009;28;658993;-68
2023/04/16 00:14:48;;;;;;;67.57;32.40;;;4.40;99.90;;;;;;4450948;28;659504;-68
2023/04/16 00:17:35;;;;;;;99.90;33.63;;;4.30;99.90;;;;;;4442203;28;658652;-68
2023/04/16 00:20:22;;;;;;;59.63;30.80;;;4.30;99.90;;;;;;4454896;28;658972;-68
2023/04/16 00:23:09;;;;;;;60.67;30.30;;;4.20;99.90;;;;;;4450570;28;658276;-68
2023/04/16 00:25:58;;;;;;;60.13;30.73;;;4.20;99.90;;;;;;4431623;28;659600;-68
2023/04/16 00:28:46;;;;;;;57.67;28.90;;;4.20;99.90;;;;;;4431166;28;658583;-68
2023/04/16 00:31:33;;;;;;;60.53;29.70;;;4.30;99.90;;;;;;4454269;28;659938;-68
2023/04/16 00:34:20;;;;;;;60.27;28.23;;;4.30;99.90;;;;;;4431590;28;658465;-68
2023/04/16 00:37:07;;;;;;;63.47;28.47;;;4.20;99.90;;;;;;4450376;28;659296;-68
2023/04/16 00:39:55;;;;;;;63.20;31.47;;;4.10;99.90;;;;;;4446921;28;658680;-68
2023/04/16 00:42:44;;;;;;;149.37;33.73;;;4.10;99.90;;;;;;4454637;28;659543;-68
2023/04/16 00:45:31;;;;;;;60.67;28.07;;;4.10;99.90;;;;;;4429871;28;660666;-68
2023/04/16 00:48:19;;;;;;;57.53;27.83;;;4.10;99.90;;;;;;4450239;28;659031;-68
2023/04/16 00:51:06;;;;;;;53.00;26.77;;;4.10;99.90;;;;;;4430913;28;658635;-68
2023/04/16 00:53:53;;;;;;;48.80;23.33;;;4.10;99.90;;;;;;4449316;28;659361;-68
2023/04/16 00:56:41;;;;;;;52.63;23.83;;;4.10;99.90;;;;;;4431252;28;658693;-68
2023/04/16 00:59:29;;;;;;;58.20;26.20;;;4.10;99.90;;;;;;4450058;28;659182;-68
2023/04/16 01:02:16;;;;;;;55.33;26.80;;;4.10;99.90;;;;;;4426943;28;659218;-68
2023/04/16 01:05:04;;;;;;;76.73;34.40;;;4.10;99.90;;;;;;4450020;28;659212;-68
2023/04/16 01:07:51;;;;;;;69.47;32.65;;;4.10;99.90;;;;;;4430189;28;658620;-68
2023/04/16 01:10:38;;;;;;;60.27;25.60;;;4.10;99.90;;;;;;4450149;28;659868;-68
2023/04/16 01:13:26;;;;;;;87.97;28.73;;;4.10;99.90;;;;;;4430841;28;658609;-68
2023/04/16 01:16:14;;;;;;;72.80;33.63;;;4.00;99.90;;;;;;4452217;28;658533;-68
2023/04/16 01:19:01;;;;;;;121.13;41.10;;;4.10;99.90;;;;;;4431002;28;658989;-68
2023/04/16 01:21:50;;;;;;;376.93;52.90;;;4.40;99.90;;;;;;4448771;28;660257;-68
2023/04/16 01:24:38;;;;;;;608.75;55.55;;;4.80;99.90;;;;;;4429372;28;659864;-68
2023/04/16 01:27:25;;;;;;;846.85;62.33;;;4.80;99.90;;;;;;4429566;28;660313;-68
2023/04/16 01:30:13;;;;;;;774.10;69.10;;;5.00;99.90;;;;;;4448388;28;661232;-68
2023/04/16 01:33:00;;;;;;;1195.33;78.60;;;5.10;99.90;;;;;;4439948;28;659560;-68
2023/04/16 01:35:48;;;;;;;730.27;59.43;;;5.20;99.90;;;;;;4446612;28;661268;-68
2023/04/16 01:38:37;;;;;;;883.87;70.53;;;5.30;99.90;;;;;;4437981;28;660894;-68
2023/04/16 01:41:24;;;;;;;1098.23;67.10;;;5.40;99.90;;;;;;4448102;28;660061;-68
2023/04/16 01:44:11;;;;;;;964.83;62.57;;;5.50;99.90;;;;;;4427162;28;660982;-68
2023/04/16 01:46:58;;;;;;;1042.20;69.87;;;5.60;99.90;;;;;;4447945;28;660544;-68
2023/04/16 01:49:47;;;;;;;1048.30;68.57;;;5.50;99.90;;;;;;4427672;28;660817;-68
2023/04/16 01:52:34;;;;;;;730.37;59.13;;;5.50;99.90;;;;;;4446563;28;661011;-68
2023/04/16 01:55:22;;;;;;;777.13;56.93;;;5.60;99.90;;;;;;4429028;28;659506;-68
2023/04/16 01:58:12;;;;;;;684.70;58.53;;;5.60;99.90;;;;;;4443625;28;660746;-68
2023/04/16 02:00:59;;;;;;;824.57;61.27;;;5.70;99.90;;;;;;4448074;28;660300;-68
2023/04/16 02:03:47;;;;;;;595.63;54.30;;;5.70;99.90;;;;;;4429006;28;660183;-68
2023/04/16 02:06:34;;;;;;;735.60;62.03;;;5.70;99.90;;;;;;4446509;28;659896;-68
2023/04/16 02:09:21;;;;;;;442.83;50.80;;;5.70;99.90;;;;;;4428763;28;659573;-68
2023/04/16 02:12:10;;;;;;;332.90;51.90;;;5.60;99.90;;;;;;4447402;28;661447;-68
2023/04/16 02:14:57;;;;;;;449.77;63.23;;;5.70;99.90;;;;;;4428548;28;660060;-68
2023/04/16 02:17:47;;;;;;;222.73;54.70;;;5.60;99.90;;;;;;4447112;28;660313;-68
2023/04/16 02:20:35;;;;;;;402.52;57.80;;;5.60;99.90;;;;;;4448220;27;659629;-68
2023/04/16 02:23:22;;;;;;;277.63;53.63;;;5.60;99.90;;;;;;4429320;28;661861;-68
2023/04/16 02:26:09;;;;;;;303.37;57.10;;;5.60;99.90;;;;;;4453581;28;660030;-68
2023/04/16 02:28:58;;;;;;;328.20;56.77;;;5.50;99.90;;;;;;4429903;28;660158;-68
2023/04/16 02:31:45;;;;;;;269.77;51.80;;;5.50;99.90;;;;;;4436889;28;659829;-68
2023/04/16 02:34:33;;;;;;;283.17;48.30;;;5.50;99.90;;;;;;4457711;28;660894;-68
2023/04/16 02:37:20;;;;;;;396.88;51.03;;;5.40;99.90;;;;;;4434668;28;659695;-67
2023/04/16 02:40:09;;;;;;;151.47;41.87;;;5.50;99.90;;;;;;4453394;28;660571;-67
2023/04/16 02:42:56;;;;;;;129.50;41.03;;;5.50;99.90;;;;;;4433342;28;659547;-68
2023/04/16 02:45:45;;;;;;;158.93;40.73;;;5.50;99.90;;;;;;4453408;28;660168;-68
2023/04/16 02:48:32;;;;;;;96.67;36.10;;;5.40;99.90;;;;;;4434331;28;660945;-67
2023/04/16 02:51:20;;;;;;;94.03;36.83;;;5.30;99.90;;;;;;4454243;28;659363;-68
2023/04/16 02:54:07;;;;;;;83.67;34.57;;;5.20;99.90;;;;;;4431586;28;660294;-68
2023/04/16 02:56:54;;;;;;;81.90;34.40;;;5.20;99.90;;;;;;4454556;28;659098;-68
2023/04/16 02:59:41;;;;;;;77.37;31.77;;;5.10;99.90;;;;;;4433335;28;658394;-68
2023/04/16 03:02:30;;;;;;;70.10;30.33;;;5.10;99.90;;;;;;4454657;28;659847;-68
2023/04/16 03:05:17;;;;;;;64.77;29.03;;;5.10;99.90;;;;;;4431371;28;660326;-67
2023/04/16 03:08:05;;;;;;;68.50;29.17;;;5.10;99.90;;;;;;4454013;28;658897;-67
2023/04/16 03:10:52;;;;;;;66.13;29.07;;;5.10;99.90;;;;;;4431353;28;660306;-68
2023/04/16 03:13:39;;;;;;;59.97;28.27;;;5.20;99.90;;;;;;4454485;28;659460;-68
2023/04/16 03:16:26;;;;;;;68.27;30.93;;;5.30;99.90;;;;;;4432863;28;658625;-68
2023/04/16 03:19:15;;;;;;;66.93;30.33;;;5.30;99.90;;;;;;4454437;28;659787;-68
2023/04/16 03:22:03;;;;;;;67.18;31.98;;;5.30;99.90;;;;;;4429807;28;659523;-68
2023/04/16 03:24:50;;;;;;;69.80;32.43;;;5.40;99.90;;;;;;4434312;28;658556;-67
2023/04/16 03:27:38;;;;;;;70.80;32.30;;;5.50;99.90;;;;;;4454231;28;660116;-67
2023/04/16 03:30:25;;;;;;;81.67;33.77;;;5.50;99.90;;;;;;4435359;28;658770;-68
2023/04/16 03:33:12;;;;;;;107.83;36.77;;;5.50;99.90;;;;;;4453672;28;659726;-68
2023/04/16 03:36:02;;;;;;;263.53;36.40;;;5.50;99.90;;;;;;4447580;28;659574;-69
2023/04/16 03:38:49;;;;;;;377.67;41.53;;;5.50;99.90;;;;;;4449788;28;660210;-69
2023/04/16 03:41:36;;;;;;;466.63;40.63;;;5.60;99.90;;;;;;4430535;28;660371;-69
2023/04/16 03:44:23;;;;;;;655.77;47.47;;;5.60;99.90;;;;;;4450062;28;659954;-69
2023/04/16 03:47:11;;;;;;;378.40;39.33;;;5.60;99.90;;;;;;4430978;28;659701;-69
2023/04/16 03:49:58;;;;;;;705.50;47.00;;;5.40;99.90;;;;;;4453983;28;660723;-69
2023/04/16 03:52:48;;;;;;;577.55;43.20;;;5.40;99.90;;;;;;4435460;28;659931;-68
2023/04/16 03:55:35;;;;;;;633.10;44.30;;;5.20;99.90;;;;;;4435162;28;660467;-69
2023/04/16 03:58:23;;;;;;;589.70;42.03;;;5.20;99.90;;;;;;4432244;28;661328;-69
2023/04/16 04:01:10;;;;;;;568.63;40.43;;;5.20;99.90;;;;;;4426302;28;659582;-69
2023/04/16 04:03:57;;;;;;;558.47;41.57;;;5.20;99.90;;;;;;4432169;28;661360;-69
2023/04/16 04:06:45;;;;;;;355.23;36.27;;;5.20;99.90;;;;;;4431982;28;660348;-69
2023/04/16 04:09:34;;;;;;;535.10;39.43;;;5.30;99.90;;;;;;4413160;28;660600;-69
2023/04/16 04:12:21;;;;;;;686.90;41.37;;;5.30;99.90;;;;;;4412777;28;659801;-69
2023/04/16 04:15:09;;;;;;;666.07;40.03;;;5.30;99.90;;;;;;4431900;28;660801;-68
2023/04/16 04:17:56;;;;;;;598.17;37.30;;;5.30;99.90;;;;;;4408955;28;659697;-68
2023/04/16 04:20:44;;;;;;;521.27;35.73;;;5.20;99.90;;;;;;4431842;28;660927;-68
2023/04/16 04:23:31;;;;;;;486.47;36.33;;;5.10;99.90;;;;;;4408613;28;659281;-69
2023/04/16 04:26:20;;;;;;;624.63;44.07;;;5.00;99.90;;;;;;4431620;28;661032;-68
2023/04/16 04:29:07;;;;;;;667.03;41.23;;;5.10;99.90;;;;;;4412996;28;661419;-68
2023/04/16 04:31:54;;;;;;;622.37;38.23;;;5.00;99.90;;;;;;4431182;28;659976;-69
2023/04/16 04:34:42;;;;;;;796.23;50.33;;;4.90;99.90;;;;;;4412648;28;659543;-69
2023/04/16 04:37:29;;;;;;;716.60;44.77;;;5.00;99.90;;;;;;4414037;28;659912;-69
2023/04/16 04:40:16;;;;;;;605.60;38.40;;;5.10;99.90;;;;;;4412533;28;660030;-68
2023/04/16 04:43:05;;;;;;;555.53;36.23;;;5.10;99.90;;;;;;4430716;28;661209;-68
2023/04/16 04:45:52;;;;;;;583.43;36.63;;;4.90;99.90;;;;;;4407558;28;660495;-68
2023/04/16 04:48:39;;;;;;;532.00;36.60;;;5.00;99.90;;;;;;4431238;28;660304;-68
2023/04/16 04:51:27;;;;;;;414.77;30.87;;;4.90;99.90;;;;;;4417260;28;659692;-69
2023/04/16 04:54:14;;;;;;;456.77;31.43;;;4.90;99.90;;;;;;4448857;28;659969;-68
2023/04/16 04:57:01;;;;;;;489.63;33.90;;;4.90;99.90;;;;;;4428429;28;659658;-68
2023/04/16 04:59:50;;;;;;;519.00;34.63;;;5.10;99.90;;;;;;4448994;28;660542;-68
2023/04/16 05:02:37;;;;;;;659.80;39.40;;;5.10;99.90;;;;;;4425924;28;661584;-69
2023/04/16 05:05:24;;;;;;;541.83;35.53;;;5.10;99.90;;;;;;4448844;28;659655;-69
2023/04/16 05:08:11;;;;;;;736.67;40.97;;;5.10;99.90;;;;;;4428764;28;659543;-69
2023/04/16 05:10:59;;;;;;;859.50;52.07;;;5.30;99.90;;;;;;4448652;28;659731;-69
2023/04/16 05:13:46;;;;;;;544.90;41.50;;;5.30;99.90;;;;;;4429940;28;659594;-69
2023/04/16 05:16:36;;;;;;;574.72;42.65;;;5.40;99.90;;;;;;4448435;28;660787;-69
2023/04/16 05:19:23;;;;;;;594.37;44.07;;;5.30;99.90;;;;;;4424489;28;661018;-69
2023/04/16 05:22:11;;;;;;;644.87;44.70;;;5.50;99.90;;;;;;4429565;28;659818;-69
2023/04/16 05:24:58;;;;;;;794.10;48.43;;;5.60;99.90;;;;;;4448298;28;660672;-69
2023/04/16 05:27:45;;;;;;;503.00;41.53;;;5.40;99.90;;;;;;4429517;28;660257;-69
2023/04/16 05:30:32;;;;;;;871.83;49.73;;;5.50;99.90;;;;;;4452172;28;660949;-69
2023/04/16 05:33:22;;;;;;;813.53;49.53;;;5.50;99.90;;;;;;4445913;28;659812;-69
2023/04/16 05:36:09;;;;;;;558.23;37.97;;;5.60;99.90;;;;;;4448596;28;659955;-69
2023/04/16 05:38:56;;;;;;;434.37;36.00;;;5.60;99.90;;;;;;4426578;28;659233;-69
2023/04/16 05:41:43;;;;;;;518.70;32.03;;;5.40;99.90;;;;;;4448216;28;660865;-71
2023/04/16 05:44:30;;;;;;;480.63;30.88;;;5.30;99.90;;;;;;4429075;28;660613;-70
2023/04/16 05:47:17;;;;;;;409.10;28.73;;;5.50;99.90;;;;;;4452404;28;660235;-70
2023/04/16 05:50:07;;;;;;;726.17;39.87;;;5.40;99.90;;;;;;4447591;28;660154;-69
2023/04/16 05:52:54;;;;;;;587.67;33.50;;;5.70;99.90;;;;;;4407503;28;660465;-69
2023/04/16 05:55:41;;;;;;;434.17;28.73;;;5.70;99.90;;;;;;4426273;28;659435;-69
2023/04/16 05:58:28;;;;;;;586.27;33.20;;;5.80;99.90;;;;;;4429703;28;660817;-69
2023/04/16 06:01:16;;;;;;;566.20;32.07;;;5.80;99.90;;;;;;4411175;28;660211;-69
2023/04/16 06:04:03;;;;;;;603.47;36.43;;;6.00;99.90;;;;;;4434274;28;660344;-69
2023/04/16 06:06:51;;;;;;;619.97;36.83;;;6.00;99.90;;;;;;4414207;28;659647;-69
2023/04/16 06:09:39;;;;;;;612.73;38.20;;;6.20;99.90;;;;;;4430107;28;660241;-69
2023/04/16 06:12:26;;;;;;;493.43;32.80;;;6.10;99.90;;;;;;4411275;28;659704;-70
2023/04/16 06:15:13;;;;;;;521.83;34.77;;;6.00;99.90;;;;;;4430364;28;660787;-69
2023/04/16 06:18:00;;;;;;;775.93;44.63;;;6.10;99.90;;;;;;4411262;28;660448;-70
2023/04/16 06:20:48;;;;;;;654.40;41.03;;;6.30;99.90;;;;;;4430033;28;661501;-70
2023/04/16 06:23:37;;;;;;;363.50;32.83;;;6.60;99.90;;;;;;4421316;28;659703;-70
2023/04/16 06:26:24;;;;;;;224.20;30.80;;;6.60;99.90;;;;;;4430148;28;660065;-70
2023/04/16 06:29:11;;;;;;;238.23;31.93;;;6.80;99.90;;;;;;4408259;28;660167;-70
2023/04/16 06:31:59;;;;;;;356.70;33.63;;;6.90;99.90;;;;;;4430117;28;660771;-70
2023/04/16 06:34:46;;;;;;;195.87;30.10;;;7.00;99.90;;;;;;4410874;28;659602;-70
2023/04/16 06:37:33;;;;;;;195.77;34.10;;;7.10;99.90;;;;;;4432621;28;660108;-70
2023/04/16 06:40:22;;;;;;;107.37;29.53;;;7.20;99.90;;;;;;4411597;28;659607;-70
2023/04/16 06:43:09;;;;;;;86.47;29.30;;;7.40;99.90;;;;;;4429882;28;659753;-70
2023/04/16 06:45:56;;;;;;;81.27;28.20;;;7.70;99.90;;;;;;4410265;28;659189;-70
2023/04/16 06:48:43;;;;;;;78.97;27.33;;;7.90;99.90;;;;;;4430664;28;659768;-70
2023/04/16 06:51:30;;;;;;;60.35;25.23;;;8.30;99.90;;;;;;4416993;28;659119;-70
2023/04/16 06:54:18;;;;;;;63.47;24.63;;;8.10;99.90;;;;;;4448758;28;660315;-70
2023/04/16 06:57:07;;;;;;;55.27;23.97;;;8.20;99.90;;;;;;4429441;28;658734;-70
2023/04/16 06:59:54;;;;;;;55.80;24.93;;;8.10;99.90;;;;;;4446173;28;658595;-71
2023/04/16 07:02:41;;;;;;;62.57;25.27;;;8.20;99.90;;;;;;4429709;28;658452;-70
2023/04/16 07:05:28;;;;;;;56.40;24.83;;;8.60;99.90;;;;;;4448501;28;659637;-70
2023/04/16 07:08:15;;;;;;;49.90;24.13;;;8.80;99.90;;;;;;4428901;28;658496;-70
2023/04/16 07:11:03;;;;;;;42.90;21.47;;;8.90;99.90;;;;;;4451658;28;661205;-70
2023/04/16 07:13:52;;;;;;;44.00;21.80;;;8.90;99.90;;;;;;4441845;28;658655;-70
2023/04/16 07:16:39;;;;;;;45.37;21.97;;;8.70;99.90;;;;;;4451759;28;659104;-71
2023/04/16 07:19:31;;;;;;;46.53;23.10;;;9.00;99.90;;;;;;4432898;28;658691;-71
2023/04/16 07:22:18;;;;;;;49.17;22.13;;;9.30;99.90;;;;;;4428698;28;659425;-70
2023/04/16 07:25:06;;;;;;;57.50;24.10;;;9.10;99.90;;;;;;4432961;28;658840;-70
2023/04/16 07:27:53;;;;;;;48.30;22.93;;;9.30;99.90;;;;;;4455656;28;658874;-70
2023/04/16 07:30:42;;;;;;;47.97;22.63;;;9.50;99.90;;;;;;4432570;28;659210;-71
2023/04/16 07:33:29;;;;;;;62.37;26.23;;;9.40;99.90;;;;;;4450700;28;658635;-71
2023/04/16 07:36:16;;;;;;;51.00;23.93;;;9.50;99.90;;;;;;4432682;28;658790;-70
2023/04/16 07:39:04;;;;;;;54.70;24.07;;;9.70;99.90;;;;;;4451530;28;659911;-71
2023/04/16 07:41:51;;;;;;;43.60;20.47;;;9.90;99.90;;;;;;4430040;28;658511;-72
2023/04/16 07:44:39;;;;;;;37.73;17.37;;;10.20;99.90;;;;;;4450823;28;659940;-70
2023/04/16 07:47:27;;;;;;;38.70;19.50;;;10.40;99.90;;;;;;4431089;28;659950;-71
2023/04/16 07:50:18;;;;;;;34.97;17.90;;;10.50;99.90;;;;;;4445215;28;659722;-71
2023/04/16 07:53:06;;;;;;;34.60;17.60;;;10.60;99.90;;;;;;4435554;28;659819;-69
2023/04/16 07:55:53;;;;;;;35.38;18.42;;;10.80;99.90;;;;;;4450130;28;660674;-71
2023/04/16 07:58:40;;;;;;;39.33;19.10;;;11.10;99.90;;;;;;4430155;28;659474;-70
2023/04/16 08:01:28;;;;;;;36.90;19.67;;;11.40;99.90;;;;;;4450097;28;660609;-71
2023/04/16 08:04:23;;;;;;;37.33;19.30;;;11.60;99.90;;;;;;4441664;28;659591;-71
2023/04/16 08:07:10;;;;;;;36.60;17.67;;;11.50;99.90;;;;;;4420356;28;659728;-70
2023/04/16 08:09:57;;;;;;;30.83;15.95;;;11.40;99.90;;;;;;4453607;28;659588;-71
2023/04/16 08:12:44;;;;;;;32.93;15.90;;;11.60;99.90;;;;;;4448913;28;660080;-71
2023/04/16 08:15:32;;;;;;;32.03;16.13;;;11.50;99.90;;;;;;4430681;28;659351;-71
2023/04/16 08:18:19;;;;;;;26.83;14.77;;;11.40;99.90;;;;;;4449577;28;660255;-71
2023/04/16 08:21:08;;;;;;;25.23;13.90;;;11.00;99.90;;;;;;4429503;28;660065;-71
2023/04/16 08:23:55;;;;;;;29.63;15.77;;;11.30;99.90;;;;;;4438774;28;659857;-71
2023/04/16 08:26:42;;;;;;;26.43;14.83;;;11.40;99.90;;;;;;4454447;27;659726;-71
2023/04/16 08:29:29;;;;;;;26.63;13.40;;;11.50;99.90;;;;;;4449327;28;659679;-71
2023/04/16 08:32:17;;;;;;;24.07;12.93;;;11.20;99.90;;;;;;4430203;28;660671;-71
2023/04/16 08:35:04;;;;;;;20.50;12.10;;;11.20;99.90;;;;;;4449437;28;660588;-71
2023/04/16 08:37:53;;;;;;;21.23;10.63;;;11.70;99.90;;;;;;4430369;28;660052;-72
2023/04/16 08:40:41;;;;;;;24.27;13.37;;;11.90;99.90;;;;;;4430236;28;659974;-70
2023/04/16 08:43:28;;;;;;;24.70;13.40;;;12.20;99.90;;;;;;4452388;28;660351;-71
2023/04/16 08:46:16;;;;;;;19.43;10.03;;;12.50;99.90;;;;;;4430173;28;659630;-67
2023/04/16 08:49:05;;;;;;;23.20;12.03;;;12.60;99.90;;;;;;4453181;28;660737;-67
2023/04/16 08:51:53;;;;;;;23.73;11.93;;;12.60;99.90;;;;;;4425751;28;660138;-71
2023/04/16 08:54:45;;;;;;;19.50;11.30;;;13.20;99.90;;;;;;4433007;28;659601;-71
2023/04/16 08:57:37;;;;;;;23.57;11.57;;;13.50;99.90;;;;;;4425713;28;660795;-72
2023/04/16 09:00:25;;;;;;;20.37;8.83;;;13.50;99.90;;;;;;4420651;28;659738;-70
2023/04/16 09:03:12;;;;;;;17.83;9.73;;;13.40;99.90;;;;;;4450207;28;659607;-72
2023/04/16 09:06:01;;;;;;;17.77;9.07;;;13.60;99.90;;;;;;4446553;28;658520;-70
2023/04/16 09:08:49;;;;;;;18.70;9.10;;;13.50;99.90;;;;;;4449693;28;658986;-71
2023/04/16 09:11:38;;;;;;;15.63;8.80;;;12.80;99.90;;;;;;4430503;28;658736;-71
2023/04/16 09:14:25;;;;;;;19.05;9.57;;;12.60;99.90;;;;;;4435860;28;658648;-70
2023/04/16 09:17:12;;;;;;;18.53;10.00;;;13.20;99.90;;;;;;4453909;28;660024;-72
2023/04/16 09:20:00;;;;;;;15.10;7.47;;;13.30;99.90;;;;;;4444091;28;659540;-72
2023/04/16 09:22:47;;;;;;;15.07;7.83;;;14.20;99.90;;;;;;4449988;28;659541;-72
2023/04/16 09:25:36;;;;;;;17.67;8.70;;;13.70;99.90;;;;;;4447309;28;658130;-70
2023/04/16 09:28:41;;;;;;;19.10;9.53;;;13.90;99.90;;;;;;4453388;28;660138;-72
2023/04/16 09:31:28;;;;;;;14.47;8.33;;;13.80;99.90;;;;;;4408396;28;659226;-72
2023/04/16 09:34:15;;;;;;;11.83;6.67;;;13.70;99.90;;;;;;4433187;28;658560;-70
2023/04/16 09:37:15;;;;;;;15.37;7.23;;;13.80;99.90;;;;;;4449029;28;659444;-72
2023/04/16 09:40:03;;;;;;;14.87;7.83;;;14.20;99.90;;;;;;4426505;28;658838;-72
2023/04/16 09:42:50;;;;;;;16.00;7.70;;;14.80;99.90;;;;;;4430304;28;658442;-71
2023/04/16 09:45:49;;;;;;;14.87;8.23;;;15.60;99.90;;;;;;4453559;28;658256;-72
2023/04/16 09:48:37;;;;;;;15.90;7.77;;;15.20;99.90;;;;;;4429891;28;658740;-72
2023/04/16 09:51:25;;;;;;;15.07;6.87;;;15.90;99.90;;;;;;4449008;28;659242;-72
2023/04/16 09:54:12;;;;;;;12.07;7.00;;;16.10;94.80;;;;;;4430346;28;659591;-72
2023/04/16 09:57:01;;;;;;;11.73;6.27;;;15.50;99.90;;;;;;4448889;28;658923;-72
2023/04/16 09:59:48;;;;;;;10.10;5.33;;;15.70;96.80;;;;;;4426136;28;659657;-72
2023/04/16 10:02:40;;;;;;;9.03;5.57;;;15.20;93.90;;;;;;4430479;28;659210;-71
2023/04/16 10:05:27;;;;;;;10.50;5.97;;;15.40;97.00;;;;;;4430784;28;658156;-72
2023/04/16 10:08:17;;;;;;;11.50;5.87;;;15.40;93.30;;;;;;4448234;28;658351;-71
2023/04/16 10:11:04;;;;;;;10.23;5.90;;;16.10;97.10;;;;;;4448686;28;659086;-72
2023/04/16 10:13:52;;;;;;;8.23;4.80;;;16.60;96.50;;;;;;4429526;28;659338;-72
2023/04/16 10:16:40;;;;;;;4.67;3.37;;;16.70;90.60;;;;;;4450153;28;658448;-72
2023/04/16 10:19:30;;;;;;;5.47;3.40;;;17.00;81.90;;;;;;4431245;28;659063;-71
2023/04/16 10:22:17;;;;;;;5.23;3.30;;;16.50;73.60;;;;;;4430833;28;658805;-72
2023/04/16 10:25:05;;;;;;;4.50;3.20;;;16.20;73.70;;;;;;4449976;28;658015;-72
2023/04/16 10:27:52;;;;;;;3.53;2.50;;;16.20;73.60;;;;;;4425999;28;659427;-72
2023/04/16 10:30:41;;;;;;;6.53;2.97;;;15.90;89.10;;;;;;4449708;28;657616;-72
2023/04/16 10:33:29;;;;;;;5.67;3.97;;;15.90;73.80;;;;;;4427203;28;659025;-72
2023/04/16 10:36:23;;;;;;;5.50;3.63;;;16.20;81.10;;;;;;4431024;28;657602;-72
2023/04/16 10:39:11;;;;;;;4.63;3.07;;;16.60;75.00;;;;;;4418222;28;658113;-71
2023/04/16 10:42:08;;;;;;;5.60;3.03;;;17.60;78.50;;;;;;4448455;28;657867;-73
2023/04/16 10:44:58;;;;;;;4.20;3.20;;;18.50;70.20;;;;;;4416957;28;657346;-71
2023/04/16 10:47:45;;;;;;;5.90;3.80;;;18.20;67.90;;;;;;4434280;28;657539;-71
2023/04/16 10:50:36;;;;;;;5.73;4.20;;;16.80;72.80;;;;;;4452964;28;658483;-72
2023/04/16 10:53:25;;;;;;;6.17;3.90;;;17.10;73.00;;;;;;4412482;28;658947;-72
2023/04/16 10:56:14;;;;;;;5.17;3.53;;;16.10;71.20;;;;;;4414862;28;658256;-72
2023/04/16 10:59:01;;;;;;;5.17;3.70;;;16.10;74.10;;;;;;4434551;28;657703;-72
2023/04/16 11:01:51;;;;;;;5.20;3.50;;;16.60;72.90;;;;;;4453131;28;658384;-72
2023/04/16 11:04:38;;;;;;;5.47;3.50;;;17.10;78.90;;;;;;4430285;28;657844;-72
2023/04/16 11:07:33;;;;;;;5.53;3.43;;;17.90;75.80;;;;;;4433938;28;658252;-71
2023/04/16 11:10:22;;;;;;;5.83;3.50;;;17.40;63.80;;;;;;4417065;28;657847;-72
2023/04/16 11:13:09;;;;;;;4.53;3.27;;;16.40;66.30;;;;;;4452882;28;657617;-73
2023/04/16 11:15:57;;;;;;;3.40;2.70;;;16.20;68.60;;;;;;4434214;28;657709;-72
2023/04/16 11:18:45;;;;;;;4.47;3.00;;;16.90;64.80;;;;;;4453042;28;658282;-73
2023/04/16 11:21:32;;;;;;;4.40;2.97;;;16.10;64.90;;;;;;4430512;28;658760;-72
2023/04/16 11:24:20;;;;;;;3.87;2.57;;;16.40;71.20;;;;;;4451464;28;658080;-72
2023/04/16 11:27:10;;;;;;;5.00;3.00;;;16.40;61.80;;;;;;4457739;28;658985;-73
2023/04/16 11:29:58;;;;;;;4.53;2.40;;;16.70;61.30;;;;;;4430393;28;658953;-72
2023/04/16 11:32:45;;;;;;;4.37;2.73;;;16.50;63.30;;;;;;4434354;28;658445;-71
2023/04/16 11:35:33;;;;;;;5.87;2.60;;;15.00;61.80;;;;;;4453601;28;659121;-73
2023/04/16 11:38:20;;;;;;;4.67;2.90;;;14.70;65.50;;;;;;4443864;28;658533;-71
2023/04/16 11:41:07;;;;;;;4.33;2.60;;;14.60;64.30;;;;;;4456059;28;657840;-73
2023/04/16 11:43:56;;;;;;;4.20;2.70;;;15.70;67.30;;;;;;4452892;28;658219;-72
2023/04/16 11:46:43;;;;;;;4.13;2.37;;;17.00;68.90;;;;;;4429599;28;659386;-73
2023/04/16 11:49:30;;;;;;;2.90;2.10;;;16.90;57.70;;;;;;4434359;28;657642;-72
2023/04/16 11:52:27;;;;;;;3.10;2.47;;;16.10;58.00;;;;;;4453245;28;659250;-72
2023/04/16 11:55:14;;;;;;;3.13;2.17;;;16.20;58.70;;;;;;4428213;28;657725;-73
2023/04/16 11:58:11;;;;;;;3.40;2.10;;;16.70;58.60;;;;;;4431669;28;657557;-73
2023/04/16 12:01:00;;;;;;;3.00;2.10;;;16.70;59.60;;;;;;4445007;28;657986;-72
2023/04/16 12:03:48;;;;;;;2.83;2.00;;;17.00;56.30;;;;;;4433876;28;658717;-72
2023/04/16 12:06:35;;;;;;;2.97;2.20;;;17.10;54.20;;;;;;4436850;28;657697;-72
2023/04/16 12:09:23;;;;;;;3.70;2.20;;;17.50;55.90;;;;;;4452751;27;658885;-73
2023/04/16 12:12:25;;;;;;;3.30;2.50;;;17.00;54.70;;;;;;4434035;28;657540;-73
2023/04/16 12:15:12;;;;;;;3.03;2.30;;;16.70;55.00;;;;;;4421616;28;658332;-73
2023/04/16 12:18:08;;;;;;;4.23;2.60;;;16.50;58.10;;;;;;4468590;28;657594;-72
2023/04/16 12:20:55;;;;;;;2.93;2.20;;;16.80;55.40;;;;;;4409798;28;657394;-72
2023/04/16 12:23:42;;;;;;;3.60;2.43;;;17.00;56.50;;;;;;4452574;28;658248;-72
2023/04/16 12:26:37;;;;;;;4.07;2.60;;;17.10;57.10;;;;;;4450149;28;657730;-73
2023/04/16 12:29:26;;;;;;;4.00;2.50;;;17.40;57.40;;;;;;4428924;28;657542;-73
2023/04/16 12:32:22;;;;;;;3.47;2.53;;;17.50;53.50;;;;;;4445290;28;658752;-73
2023/04/16 12:35:10;;;;;;;4.93;3.10;;;17.30;57.00;;;;;;4427646;28;658139;-73
2023/04/16 12:37:58;;;;;;;4.20;3.00;;;17.60;57.60;;;;;;4428106;28;658920;-73
2023/04/16 12:40:45;;;;;;;5.50;3.47;;;16.60;58.90;;;;;;4446283;28;657562;-72
2023/04/16 12:43:32;;;;;;;4.37;3.20;;;16.30;60.00;;;;;;4455359;28;658670;-73
2023/04/16 12:46:20;;;;;;;5.93;3.73;;;16.70;59.10;;;;;;4450952;28;657639;-73
2023/04/16 12:49:07;;;;;;;5.73;3.80;;;17.30;62.30;;;;;;4432654;28;657340;-73
2023/04/16 12:51:55;;;;;;;5.50;3.70;;;17.70;60.10;;;;;;4451984;28;657452;-73
2023/04/16 12:54:43;;;;;;;6.90;3.92;;;18.00;59.50;;;;;;4424166;28;658136;-73
2023/04/16 12:57:30;;;;;;;5.83;3.80;;;18.10;58.80;;;;;;4443778;28;657293;-72
2023/04/16 13:00:18;;;;;;;6.27;3.30;;;18.30;58.90;;;;;;4456205;28;657819;-73
2023/04/16 13:03:05;;;;;;;5.30;3.60;;;18.50;59.60;;;;;;4432350;28;658236;-72
2023/04/16 13:05:52;;;;;;;6.30;3.60;;;18.90;59.90;;;;;;4455398;28;658230;-73
2023/04/16 13:08:42;;;;;;;4.30;3.10;;;18.90;55.50;;;;;;4449332;28;657894;-72
2023/04/16 13:11:29;;;;;;;7.77;3.40;;;19.50;56.30;;;;;;4449619;28;658466;-73
2023/04/16 13:14:16;;;;;;;7.57;3.47;;;19.60;55.20;;;;;;4433210;28;658123;-72
2023/04/16 13:17:03;;;;;;;3.77;2.93;;;19.70;53.60;;;;;;4452060;28;658460;-73
2023/04/16 13:19:50;;;;;;;4.70;3.37;;;19.60;54.30;;;;;;4432184;28;657963;-72
2023/04/16 13:22:38;;;;;;;5.80;3.23;;;18.60;53.50;;;;;;4450605;28;659117;-73
2023/04/16 13:25:27;;;;;;;5.20;2.80;;;18.80;54.90;;;;;;4440881;28;658319;-72
2023/04/16 13:28:14;;;;;;;3.73;2.83;;;18.80;52.10;;;;;;4450255;28;657933;-73
2023/04/16 13:31:01;;;;;;;4.27;2.87;;;18.20;52.70;;;;;;4432358;28;658764;-73
2023/04/16 13:33:48;;;;;;;4.43;2.90;;;18.70;53.80;;;;;;4451658;28;658880;-73
2023/04/16 13:36:35;;;;;;;3.93;2.80;;;18.20;51.40;;;;;;4432284;28;658052;-73
2023/04/16 13:39:22;;;;;;;5.20;2.80;;;18.80;56.50;;;;;;4450954;28;658169;-73
2023/04/16 13:42:11;;;;;;;4.00;2.80;;;19.10;53.30;;;;;;4446707;28;657173;-72
2023/04/16 13:44:59;;;;;;;4.23;2.73;;;18.90;51.30;;;;;;4451142;28;657664;-73
2023/04/16 13:47:47;;;;;;;4.13;2.87;;;17.90;52.50;;;;;;4448021;28;657814;-73
2023/04/16 13:50:34;;;;;;;4.83;3.07;;;17.70;54.10;;;;;;4448724;28;658135;-73
2023/04/16 13:53:21;;;;;;;4.60;2.67;;;18.00;52.40;;;;;;4412788;28;658170;-73
2023/04/16 13:56:09;;;;;;;7.40;2.90;;;18.10;52.00;;;;;;4450068;28;658209;-73
2023/04/16 13:58:58;;;;;;;3.33;2.43;;;18.30;52.70;;;;;;4447901;28;658131;-72
2023/04/16 14:01:45;;;;;;;4.63;3.00;;;18.40;54.50;;;;;;4447922;28;657403;-72
2023/04/16 14:04:32;;;;;;;4.57;3.00;;;18.60;54.90;;;;;;4466757;28;659111;-73
2023/04/16 14:07:24;;;;;;;6.97;2.83;;;18.60;55.00;;;;;;4466541;28;657943;-73
2023/04/16 14:10:11;;;;;;;5.73;2.93;;;18.60;54.40;;;;;;4447631;28;657789;-73